Here is the Quick Look data you requested

The Data originates at the National Weather Service, and is made available here by the UAlbany Department of Atmospheric and Environmental Sciences

Surface Observations

KPIT 142351Z 24003KT 10SM FEW055 SCT150 SCT250 29/19 A3004 RMK AO2 SLP169
 T02940194 10311 20294 58014=
KPIT 150051Z 22003KT 10SM FEW050 SCT150 SCT250 28/21 A3004 RMK AO2 SLP168
 T02780206=
KPIT 150151Z 22004KT 10SM SCT150 SCT250 27/20 A3005 RMK AO2 SLP171 T02720200=
KPIT 150251Z 23003KT 10SM FEW050 SCT150 SCT250 26/21 A3006 RMK AO2 SLP176
 T02610206 53007=
KPIT 150351Z 21005KT 10SM SCT048 SCT150 SCT200 26/21 A3006 RMK AO2 SLP175
 T02610206=
KPIT 150451Z 22004KT 9SM SCT048 OVC200 26/21 A3006 RMK AO2 SLP175 T02610211
 403110189=
KPIT 150551Z 24003KT 9SM FEW050 SCT120 BKN200 25/21 A3005 RMK AO2 SLP173
 T02500211 10294 20250 58002=
KPIT 150651Z 22004KT 9SM FEW035 SCT120 BKN200 25/21 A3005 RMK AO2 SLP170
 T02500211=
KPIT 150751Z 27003KT 10SM SCT040 BKN120 OVC170 24/21 A3004 RMK AO2 LTG DSNT W
 SLP169 T02440211=
KPIT 150813Z 31003KT 8SM TS SCT040CB BKN120 OVC170 24/21 A3005 RMK AO2 LTG DSNT
 W TSB11 OCNL LTGICCG VC W TS VC W MOV E T02390211=
KPIT 150851Z 25005KT 8SM -TSRA BKN040CB OVC100 23/19 A3004 RMK AO2 LTG DSNT E
 RAB29 TSB11 SLP168 OCNL LTGICCG OHD TS OHD MOV E P0000 60000 T02330194 56004=
KPIT 150925Z 00000KT 10SM FEW047 BKN110 OVC200 23/17 A3004 RMK AO2 RAE20 TSE24
 P0000 T02280172=
KPIT 150943Z 00000KT 10SM TS FEW046CB BKN100 OVC200 23/17 A3004 RMK AO2 LTG
 DSNT SW AND W RAE20 TSE24E40B42 OCNL LTGICCG VC W TS VC W MOV E P0000
 T02330172=
KPIT 150951Z 00000KT 10SM TS FEW045CB BKN080 OVC200 23/18 A3003 RMK AO2 LTG
 DSNT SE-W RAE20 TSE24E40B42 SLP166 OCNL LTGICCG VC SW-W TS VC SW-W MOV E P0000
 T02330178=
KPIT 151051Z 19005KT 10SM TS FEW048CB BKN075 OVC110 22/19 A3005 RMK AO2 LTG
 DSNT SE-SW SLP173 OCNL LTGICCG VC SE-S TS VC SE-S MOV E T02220189=
KPIT 151124Z 17004KT 10SM SCT055 BKN100 BKN150 22/18 A3006 RMK AO2 LTG DSNT
 E-SW TSE23 T02170183=
KPIT 151151Z 33003KT 10SM FEW065 SCT110 BKN200 23/18 A3005 RMK AO2 LTG DSNT S
 AND SW TSE23 SLP172 60000 T02280183 10250 20217 53003=
KPIT 151251Z 24003KT 10SM BKN100 BKN220 23/19 A3005 RMK AO2 LTG DSNT S SLP172
 T02330194=
KPIT 151351Z 19004KT 10SM BKN140 BKN250 24/21 A3005 RMK AO2 LTG DSNT S SLP172
 T02440211=
KPIT 151451Z VRB04KT 10SM BKN150 BKN250 27/22 A3005 RMK AO2 SLP170 T02670217
 58001=
KPIT 151551Z VRB04KT 10SM FEW055 SCT150 BKN250 28/22 A3004 RMK AO2 SLP168
 T02780217=
KPIT 151651Z 21005KT 10SM CLR 29/20 A3003 RMK AO2 SLP166 T02940200=
KPIT 151651Z COR 21005KT 10SM SCT120 29/20 A3003 RMK AO2 SLP166 T02940200=
KPIT 151751Z 22007KT 10SM FEW045 BKN130 31/18 A3002 RMK AO2 SLP159 T03110183
 10311 20228 58009=
KPIT 151851Z 00000KT 10SM SCT047 SCT130 31/18 A3001 RMK AO2 LTG DSNT NE AND S
 SLP156 T03110178=
KPIT 151915Z 23006KT 10SM VCTS SCT047CB SCT130 31/18 A3000 RMK AO2 LTG DSNT
 NE-S TSE09 CB VC N-NE T03110183=
KPIT 151930Z 22009KT 10SM SCT047 SCT130 32/19 A3001 RMK AO2 LTG DSNT NE AND S
 TSE09 CB DSNT NE T03170194=
KPIT 151951Z 24004KT 10SM SCT048 SCT130 31/19 A3000 RMK AO2 LTG DSNT E AND SE
 TSE09 SLP154 CB DSNT NE-SE T03110194=
KPIT 152042Z 26006KT 10SM VCTS SCT050CB 31/20 A2997 RMK AO2 LTG DSNT E AND SE
 CB VC NE-E MOV E T03110200=
KPIT 152051Z 28006KT 10SM VCTS SCT050CB 31/20 A2998 RMK AO2 LTG DSNT E-SW
 SLP147 CB VC NE-SE MOV E T03110200 58013=
KPIT 152059Z 25006KT 10SM SCT050 31/19 A2998 RMK AO2 LTG DSNT E-SW CB DSNT
 NE-SE T03110194=
KPIT 152112Z 28006KT 10SM TS SCT050CB 32/20 A2998 RMK AO2 LTG DSNT E AND SE
 TSB12 OCNL LTGICCG VC N-SE TS VC N-SE MOV E T03170200=
KPIT 152151Z 10008KT 9SM TS BKN048CB 27/21 A2999 RMK AO2 LTG DSNT E-S TSB12
 SLP152 OCNL LTGICCG VC E-SE TS VC E-SE MOV E T02720211=
KPIT 152251Z 17007KT 9SM TS FEW021 BKN048CB BKN095 23/22 A3001 RMK AO2 LTG DSNT
 S RAB10E47 SLP161 OCNL LTGIC VC SE-S TS VC SE-S MOV SE P0025 T02330222=
KPIT 152319Z 21007KT 10SM SCT050 BKN070 24/22 A3000 RMK AO2 TSE19 CB DSNT SE
 AND NW P0007 T02390217=
KPIT 152351Z 00000KT 10SM FEW033 SCT095 SCT220 24/22 A3000 RMK AO2 LTG DSNT N
 AND NW TSE19 SLP157 CB DSNT NW P0007 60032 T02390217 10322 20233 50006=
KPIT 160051Z 17003KT 10SM FEW048 SCT110 BKN230 23/22 A3000 RMK AO2 SLP159
 T02280222=
KPIT 160151Z 00000KT 10SM FEW050 SCT110 BKN230 23/22 A3002 RMK AO2 SLP164
 T02280217=
KPIT 160251Z 15004KT 10SM FEW100 SCT250 22/21 A3003 RMK AO2 SLP165 T02220211
 51009=
KPIT 160351Z 23005KT 10SM FEW050 SCT110 SCT250 23/19 A3003 RMK AO2 SLP166
 T02280194=
KPIT 160451Z 00000KT 10SM FEW110 SCT250 23/19 A3003 RMK AO2 SLP165 T02280194
 403220217=
KPIT 160551Z 00000KT 10SM SCT250 22/20 A3001 RMK AO2 SLP159 T02170200 10239
 20211 58004=
KPIT 160651Z 12003KT 10SM FEW250 21/20 A3001 RMK AO2 SLP159 T02060200=
KPIT 160751Z 00000KT 10SM FEW250 21/20 A3001 RMK AO2 SLP159 T02110200=
KPIT 160851Z 00000KT 10SM FEW250 21/20 A3001 RMK AO2 SLP157 T02060200 58002=
KPIT 160951Z 00000KT 10SM FEW140 FEW250 21/20 A3002 RMK AO2 SLP162 T02060200=
KPIT 161051Z 15003KT 9SM SCT140 SCT250 21/20 A3003 RMK AO2 SLP168 T02060200=
KPIT 161151Z 00000KT 8SM FEW140 SCT250 21/21 A3003 RMK AO2 SLP168 70032
 T02110206 10217 20200 51009=